createdAt,value
2017-11-17T00:02:06.726Z,36.50
2017-11-17T00:04:34.216Z,37.77
2017-11-17T00:07:01.752Z,40.23
2017-11-17T00:09:29.265Z,38.37
2017-11-17T00:11:57.559Z,36.97
2017-11-17T00:14:25.054Z,38.57
2017-11-17T00:16:52.541Z,38.77
2017-11-17T00:19:21.339Z,41.53
2017-11-17T00:21:49.623Z,40.80
2017-11-17T00:24:17.939Z,39.40
2017-11-17T00:26:45.442Z,39.33
2017-11-17T00:29:13.705Z,37.37
2017-11-17T00:31:41.987Z,35.33
2017-11-17T00:34:09.492Z,39.20
2017-11-17T00:36:37.056Z,34.63
2017-11-17T00:39:04.563Z,36.43
2017-11-17T00:41:32.053Z,39.20
2017-11-17T00:43:59.585Z,40.05
2017-11-17T00:46:27.845Z,39.60
2017-11-17T00:48:55.324Z,39.50
2017-11-17T00:51:23.626Z,41.60
2017-11-17T00:53:51.645Z,43.27
2017-11-17T00:56:19.181Z,45.40
2017-11-17T00:58:46.677Z,45.47
2017-11-17T01:01:14.288Z,45.95
2017-11-17T01:03:41.790Z,52.80
2017-11-17T01:06:10.066Z,50.50
2017-11-17T01:08:37.622Z,51.75
2017-11-17T01:11:05.244Z,50.75
2017-11-17T01:13:32.782Z,51.30
2017-11-17T01:16:00.334Z,59.43
2017-11-17T01:18:27.894Z,56.47
2017-11-17T01:20:55.438Z,56.70
2017-11-17T01:23:23.707Z,54.20
2017-11-17T01:25:51.285Z,56.90
2017-11-17T01:28:19.553Z,58.60
2017-11-17T01:30:47.828Z,56.90
2017-11-17T01:33:16.214Z,52.20
2017-11-17T01:35:44.468Z,60.12
2017-11-17T01:38:12.729Z,56.37
2017-11-17T01:40:40.254Z,63.05
2017-11-17T01:43:07.757Z,62.92
2017-11-17T01:45:35.343Z,59.97
2017-11-17T01:48:03.613Z,59.95
2017-11-17T01:50:32.865Z,62.17
2017-11-17T01:53:00.378Z,67.60
2017-11-17T01:55:28.665Z,59.53
2017-11-17T01:57:56.173Z,58.87
2017-11-17T02:00:23.776Z,61.30
2017-11-17T02:02:51.328Z,56.63
2017-11-17T02:05:19.613Z,56.57
2017-11-17T02:07:47.853Z,60.70
2017-11-17T02:10:15.374Z,64.07
2017-11-17T02:12:42.863Z,71.87
2017-11-17T02:15:10.360Z,77.62
2017-11-17T02:17:37.881Z,71.12
2017-11-17T02:20:05.399Z,73.45
2017-11-17T02:22:32.927Z,72.73
2017-11-17T02:25:01.299Z,63.35
2017-11-17T02:27:28.797Z,64.57
2017-11-17T02:29:56.284Z,68.90
2017-11-17T02:32:24.616Z,76.33
2017-11-17T02:34:52.125Z,66.60
2017-11-17T02:37:19.619Z,77.23
2017-11-17T02:39:47.882Z,77.53
2017-11-17T02:42:16.570Z,83.32
2017-11-17T02:44:44.819Z,77.30
2017-11-17T02:47:12.449Z,93.35
2017-11-17T02:49:39.945Z,96.45
2017-11-17T02:52:07.570Z,83.07
2017-11-17T02:54:35.625Z,90.77
2017-11-17T02:57:03.205Z,87.13
2017-11-17T02:59:30.741Z,88.80
2017-11-17T03:01:58.220Z,82.13
2017-11-17T03:04:25.764Z,91.63
2017-11-17T03:06:53.304Z,88.20
2017-11-17T03:09:20.847Z,82.90
2017-11-17T03:11:48.331Z,82.93
2017-11-17T03:14:16.586Z,86.23
2017-11-17T03:16:44.861Z,80.33
2017-11-17T03:19:12.969Z,86.63
2017-11-17T03:21:40.483Z,82.22
2017-11-17T03:24:08.060Z,87.82
2017-11-17T03:26:36.345Z,83.90
2017-11-17T03:29:04.612Z,77.13
2017-11-17T03:31:32.868Z,81.53
2017-11-17T03:34:00.358Z,87.73
2017-11-17T03:36:27.907Z,80.70
2017-11-17T03:38:56.162Z,88.27
2017-11-17T03:41:23.658Z,86.27
2017-11-17T03:43:51.213Z,86.17
2017-11-17T03:46:18.707Z,86.60
2017-11-17T03:48:46.192Z,87.27
2017-11-17T03:51:13.686Z,90.30
2017-11-17T03:53:41.233Z,84.03
2017-11-17T03:56:09.496Z,81.00
2017-11-17T03:58:37.005Z,78.03
2017-11-17T04:01:04.508Z,90.23
2017-11-17T04:03:32.088Z,83.90
2017-11-17T04:05:59.643Z,82.18
2017-11-17T04:08:27.896Z,80.37
2017-11-17T04:10:55.393Z,81.73
2017-11-17T04:13:22.874Z,78.93
2017-11-17T04:15:50.405Z,75.27
2017-11-17T04:18:17.904Z,68.17
2017-11-17T04:20:45.405Z,71.10
2017-11-17T04:23:13.662Z,73.90
2017-11-17T04:25:41.165Z,71.80
2017-11-17T04:28:08.656Z,66.00
2017-11-17T04:30:36.214Z,65.03
2017-11-17T04:33:03.707Z,63.27
2017-11-17T04:35:31.968Z,68.90
2017-11-17T04:37:59.478Z,63.07
2017-11-17T04:40:26.964Z,67.77
2017-11-17T04:42:54.464Z,60.67
2017-11-17T04:45:22.730Z,67.27
2017-11-17T04:47:50.227Z,64.03
2017-11-17T04:50:17.728Z,61.90
2017-11-17T04:52:45.220Z,65.03
2017-11-17T04:55:13.552Z,61.77
2017-11-17T04:57:41.125Z,63.70
2017-11-17T05:00:08.618Z,64.30
2017-11-17T05:02:36.881Z,56.27
2017-11-17T05:05:05.132Z,59.03
2017-11-17T05:07:32.649Z,61.17
2017-11-17T05:10:00.222Z,61.80
2017-11-17T05:12:27.782Z,57.97
2017-11-17T05:14:55.269Z,58.43
2017-11-17T05:17:22.800Z,61.40
2017-11-17T05:19:50.304Z,57.53
2017-11-17T05:22:17.813Z,55.57
2017-11-17T05:24:45.313Z,56.07
2017-11-17T05:27:12.859Z,60.17
2017-11-17T05:29:40.348Z,56.53
2017-11-17T05:32:08.598Z,52.40
2017-11-17T05:34:36.096Z,51.77
2017-11-17T05:37:03.573Z,50.67
2017-11-17T05:39:31.078Z,45.93
2017-11-17T05:41:58.589Z,50.20
2017-11-17T05:44:26.857Z,46.90
2017-11-17T05:46:54.393Z,45.30
2017-11-17T05:49:22.652Z,54.40
2017-11-17T05:51:50.229Z,45.83
2017-11-17T05:54:18.493Z,44.87
2017-11-17T05:56:45.978Z,41.03
2017-11-17T05:59:13.461Z,41.13
2017-11-17T06:01:40.979Z,44.03
2017-11-17T06:04:09.241Z,39.93
2017-11-17T06:06:36.772Z,40.23
2017-11-17T06:09:04.236Z,40.97
2017-11-17T06:11:31.762Z,37.23
2017-11-17T06:13:59.254Z,39.10
2017-11-17T06:16:26.738Z,36.33
2017-11-17T06:18:55.014Z,37.80
2017-11-17T06:21:23.277Z,37.43
2017-11-17T06:23:50.782Z,33.27
2017-11-17T06:26:18.267Z,35.77
2017-11-17T06:28:45.752Z,36.83
2017-11-17T06:31:13.244Z,36.40
2017-11-17T06:33:40.775Z,33.90
2017-11-17T06:36:08.269Z,37.50
2017-11-17T06:38:35.747Z,36.30
2017-11-17T06:41:03.253Z,33.13
2017-11-17T06:43:31.528Z,35.53
2017-11-17T06:45:59.806Z,32.73
2017-11-17T06:48:28.074Z,32.97
2017-11-17T06:50:55.596Z,33.80
2017-11-17T06:53:23.085Z,27.73
2017-11-17T06:55:50.568Z,29.60
2017-11-17T06:58:18.841Z,34.30
2017-11-17T07:00:47.104Z,32.77
2017-11-17T07:03:14.594Z,36.37
2017-11-17T07:05:42.085Z,31.80
2017-11-17T07:08:09.605Z,30.50
2017-11-17T07:10:37.092Z,32.63
2017-11-17T07:13:04.590Z,34.70
2017-11-17T07:15:32.091Z,35.40
2017-11-17T07:17:59.656Z,28.90
2017-11-17T07:20:27.149Z,29.60
2017-11-17T07:22:54.641Z,33.90
2017-11-17T07:25:22.905Z,31.27
2017-11-17T07:27:51.156Z,32.57
2017-11-17T07:30:18.652Z,31.93
2017-11-17T07:32:46.912Z,34.70
2017-11-17T07:35:15.196Z,35.47
2017-11-17T07:37:43.473Z,32.60
2017-11-17T07:40:11.725Z,39.23
2017-11-17T07:42:39.227Z,35.63
2017-11-17T07:45:06.707Z,39.87
2017-11-17T07:47:34.213Z,38.87
2017-11-17T07:50:02.472Z,37.37
2017-11-17T07:52:29.953Z,33.87
2017-11-17T07:54:58.200Z,33.47
2017-11-17T07:57:25.680Z,37.53
2017-11-17T07:59:53.974Z,36.80
2017-11-17T08:02:22.233Z,34.27
2017-11-17T08:04:50.508Z,37.00
2017-11-17T08:07:18.764Z,36.03
2017-11-17T08:09:46.267Z,34.87
2017-11-17T08:12:13.751Z,36.80
2017-11-17T08:14:41.257Z,40.47
2017-11-17T08:17:25.203Z,40.33
2017-11-17T08:19:53.470Z,39.00
2017-11-17T08:22:20.989Z,38.33
2017-11-17T08:24:48.468Z,38.37
2017-11-17T08:27:15.973Z,39.57
2017-11-17T08:29:44.229Z,40.63
2017-11-17T08:32:12.502Z,58.67
2017-11-17T08:34:40.772Z,54.77
2017-11-17T08:37:08.252Z,53.23
2017-11-17T08:39:36.528Z,40.57
2017-11-17T08:42:04.787Z,40.80
2017-11-17T08:44:32.293Z,44.80
2017-11-17T08:46:59.871Z,42.47
2017-11-17T08:49:27.390Z,42.33
2017-11-17T08:51:54.962Z,42.60
2017-11-17T08:54:22.462Z,42.27
2017-11-17T08:56:49.956Z,40.20
2017-11-17T08:59:18.216Z,41.87
2017-11-17T09:01:45.709Z,39.83
2017-11-17T09:04:13.205Z,40.20
2017-11-17T09:06:40.695Z,42.77
2017-11-17T09:09:08.944Z,42.13
2017-11-17T09:11:36.448Z,43.83
2017-11-17T09:14:03.937Z,40.00
2017-11-17T09:16:31.436Z,37.77
2017-11-17T09:18:58.931Z,44.40
2017-11-17T09:21:26.432Z,41.30
2017-11-17T09:23:53.937Z,40.20
2017-11-17T09:26:21.448Z,40.90
2017-11-17T09:28:48.948Z,39.97
2017-11-17T09:31:16.645Z,39.23
2017-11-17T09:33:44.196Z,42.43
2017-11-17T09:36:11.709Z,40.80
2017-11-17T09:38:39.977Z,39.10
2017-11-17T09:41:07.489Z,42.07
2017-11-17T09:43:34.992Z,36.47
2017-11-17T09:46:02.491Z,41.97
2017-11-17T09:48:30.037Z,38.47
2017-11-17T09:50:58.309Z,35.53
2017-11-17T09:53:27.394Z,36.23
2017-11-17T09:55:55.705Z,35.03
2017-11-17T09:58:23.193Z,36.43
2017-11-17T10:00:50.701Z,33.27
2017-11-17T10:03:18.960Z,31.33
2017-11-17T10:05:46.462Z,27.23
2017-11-17T10:08:14.096Z,37.03
2017-11-17T10:10:42.355Z,28.80
2017-11-17T10:13:10.656Z,29.43
2017-11-17T10:15:38.940Z,29.03
2017-11-17T10:18:07.345Z,23.30
2017-11-17T10:20:34.957Z,25.00
2017-11-17T10:23:03.209Z,26.73
2017-11-17T10:25:30.732Z,23.70
2017-11-17T10:27:58.277Z,24.17
2017-11-17T10:30:25.775Z,24.87
2017-11-17T10:32:53.281Z,21.47
2017-11-17T10:35:21.562Z,24.87
2017-11-17T10:37:49.055Z,26.17
2017-11-17T10:40:16.578Z,24.00
2017-11-17T10:42:44.073Z,23.93
2017-11-17T10:45:11.594Z,22.23
2017-11-17T10:47:39.340Z,23.20
2017-11-17T10:50:07.595Z,23.67
2017-11-17T10:52:35.187Z,24.37
2017-11-17T10:55:03.473Z,19.43
2017-11-17T10:57:31.006Z,17.20
2017-11-17T10:59:58.581Z,20.43
2017-11-17T11:02:26.856Z,16.83
2017-11-17T11:04:54.364Z,17.17
2017-11-17T11:07:21.853Z,14.20
2017-11-17T11:09:50.143Z,15.43
2017-11-17T11:12:17.633Z,14.73
2017-11-17T11:14:45.126Z,10.33
2017-11-17T11:17:12.648Z,12.67
2017-11-17T11:19:40.218Z,9.73
2017-11-17T11:22:07.747Z,10.57
2017-11-17T11:24:35.302Z,11.63
2017-11-17T11:27:03.603Z,11.70
2017-11-17T11:29:31.152Z,12.37
2017-11-17T11:31:58.647Z,10.43
2017-11-17T11:34:26.133Z,10.77
2017-11-17T11:36:53.701Z,10.57
2017-11-17T11:39:21.947Z,8.70
2017-11-17T11:41:49.544Z,10.10
2017-11-17T11:44:17.793Z,9.47
2017-11-17T11:46:45.277Z,9.93
2017-11-17T11:49:13.536Z,9.27
2017-11-17T11:51:41.113Z,11.93
2017-11-17T11:54:09.420Z,10.17
2017-11-17T11:56:36.965Z,9.70
2017-11-17T11:59:04.517Z,13.00
2017-11-17T12:01:32.011Z,11.30
2017-11-17T12:03:59.546Z,15.43
2017-11-17T12:06:27.138Z,9.80
2017-11-17T12:08:54.718Z,9.53
2017-11-17T12:11:22.209Z,12.43
2017-11-17T12:13:49.753Z,10.23
2017-11-17T12:16:18.009Z,9.03
2017-11-17T12:18:45.598Z,6.13
2017-11-17T12:21:13.859Z,7.57
2017-11-17T12:23:41.357Z,8.57
2017-11-17T12:26:08.840Z,9.80
2017-11-17T12:28:36.388Z,9.40
2017-11-17T12:31:03.884Z,9.27
2017-11-17T12:33:31.408Z,10.87
2017-11-17T12:35:58.910Z,8.37
2017-11-17T12:38:26.526Z,11.10
2017-11-17T12:40:54.041Z,9.07
2017-11-17T12:43:22.370Z,8.20
2017-11-17T12:45:50.903Z,8.47
2017-11-17T12:48:18.154Z,8.13
2017-11-17T12:50:46.427Z,6.63
2017-11-17T12:53:14.669Z,6.73
2017-11-17T12:55:42.265Z,7.10
2017-11-17T12:58:10.511Z,8.03
2017-11-17T13:00:38.383Z,8.87
2017-11-17T13:03:05.964Z,9.03
2017-11-17T13:05:34.328Z,8.37
2017-11-17T13:08:01.905Z,9.40
2017-11-17T13:10:30.157Z,9.27
2017-11-17T13:12:57.735Z,9.47
2017-11-17T13:15:25.985Z,7.87
2017-11-17T13:17:53.577Z,8.83
2017-11-17T13:20:21.829Z,10.77
2017-11-17T13:22:49.408Z,7.77
2017-11-17T13:25:17.655Z,7.53
2017-11-17T13:27:45.143Z,9.67
2017-11-17T13:30:13.388Z,9.80
2017-11-17T13:32:40.864Z,15.10
2017-11-17T13:35:08.480Z,6.73
2017-11-17T13:37:35.963Z,10.47
2017-11-17T13:40:03.444Z,8.57
2017-11-17T13:42:31.046Z,9.63
2017-11-17T13:44:58.577Z,8.53
2017-11-17T13:47:26.840Z,11.73
2017-11-17T13:49:55.109Z,11.83
2017-11-17T13:52:22.600Z,5.90
2017-11-17T13:54:50.072Z,7.43
2017-11-17T13:57:17.593Z,6.80
2017-11-17T13:59:45.837Z,9.50
2017-11-17T14:02:13.317Z,10.50
2017-11-17T14:04:40.793Z,8.60
2017-11-17T14:07:09.044Z,8.57
2017-11-17T14:09:36.553Z,9.50
2017-11-17T14:12:04.029Z,10.00
2017-11-17T14:14:31.527Z,12.50
2017-11-17T14:16:59.017Z,8.60
2017-11-17T14:19:26.506Z,10.60
2017-11-17T14:21:54.010Z,9.07
2017-11-17T14:24:22.250Z,11.23
2017-11-17T14:26:49.733Z,8.70
2017-11-17T14:29:17.972Z,9.03
2017-11-17T14:31:45.469Z,8.80
2017-11-17T14:34:13.713Z,8.10
2017-11-17T14:36:41.187Z,7.53
2017-11-17T14:39:08.667Z,9.73
2017-11-17T14:41:36.953Z,7.20
2017-11-17T14:44:05.208Z,6.57
2017-11-17T14:46:32.676Z,7.07
2017-11-17T14:49:00.943Z,8.37
2017-11-17T14:51:29.198Z,9.10
2017-11-17T14:53:56.686Z,9.03
2017-11-17T14:56:24.953Z,6.17
2017-11-17T14:58:52.420Z,9.47
2017-11-17T15:01:20.673Z,8.17
2017-11-17T15:03:49.060Z,8.00
2017-11-17T15:06:16.644Z,6.80
2017-11-17T15:08:44.915Z,5.97
2017-11-17T15:11:13.156Z,9.03
2017-11-17T15:13:40.777Z,8.27
2017-11-17T15:16:08.313Z,6.97
2017-11-17T15:18:36.556Z,10.83
2017-11-17T15:21:04.049Z,8.33
2017-11-17T15:23:31.617Z,6.97
2017-11-17T15:25:59.308Z,8.00
2017-11-17T15:28:26.845Z,11.60
2017-11-17T15:30:54.372Z,10.07
2017-11-17T15:33:22.663Z,8.60
2017-11-17T15:35:50.914Z,9.73
2017-11-17T15:38:18.512Z,10.00
2017-11-17T15:40:46.053Z,10.17
2017-11-17T15:43:14.330Z,11.87
2017-11-17T15:45:42.583Z,8.97
2017-11-17T15:48:10.864Z,14.10
2017-11-17T15:50:38.425Z,12.13
2017-11-17T15:53:06.678Z,11.40
2017-11-17T15:55:34.160Z,7.13
2017-11-17T15:58:01.733Z,10.47
2017-11-17T16:00:29.989Z,10.00
2017-11-17T16:02:57.486Z,13.87
2017-11-17T16:05:24.986Z,12.57
2017-11-17T16:07:52.480Z,9.33
2017-11-17T16:10:20.757Z,12.83
2017-11-17T16:12:49.037Z,12.83
2017-11-17T16:15:17.280Z,11.00
2017-11-17T16:17:44.865Z,12.47
2017-11-17T16:20:13.177Z,13.43
2017-11-17T16:22:40.651Z,11.73
2017-11-17T16:25:08.164Z,15.63
2017-11-17T16:27:36.454Z,12.30
2017-11-17T16:30:03.949Z,14.60
2017-11-17T16:32:31.552Z,13.53
2017-11-17T16:34:59.832Z,15.43
2017-11-17T16:37:28.293Z,14.87
2017-11-17T16:39:56.364Z,15.13
2017-11-17T16:42:23.984Z,13.13
2017-11-17T16:44:51.495Z,14.50
2017-11-17T16:47:19.809Z,15.93
2017-11-17T16:49:47.434Z,11.93
2017-11-17T16:52:15.697Z,16.57
2017-11-17T16:54:43.276Z,13.33
2017-11-17T16:57:11.599Z,16.87
2017-11-17T16:59:39.316Z,18.57
2017-11-17T17:02:07.560Z,15.90
2017-11-17T17:04:35.101Z,18.43
2017-11-17T17:07:02.602Z,18.50
2017-11-17T17:09:30.901Z,16.77
2017-11-17T17:11:58.421Z,20.53
2017-11-17T17:14:26.044Z,19.80
2017-11-17T17:16:53.627Z,17.40
2017-11-17T17:19:21.152Z,21.63
2017-11-17T17:21:48.633Z,20.33
2017-11-17T17:24:16.135Z,31.57
2017-11-17T17:26:45.604Z,23.20
2017-11-17T17:29:13.127Z,22.30
2017-11-17T17:31:40.768Z,16.00
2017-11-17T17:34:09.045Z,18.17
2017-11-17T17:36:37.307Z,16.93
2017-11-17T17:39:05.554Z,15.63
2017-11-17T17:41:33.154Z,19.70
2017-11-17T17:44:01.429Z,17.53
2017-11-17T17:46:29.709Z,17.70
2017-11-17T17:48:57.968Z,17.27
2017-11-17T17:51:25.486Z,17.13
2017-11-17T17:53:52.976Z,16.50
2017-11-17T17:56:20.588Z,15.80
2017-11-17T17:58:48.084Z,17.20
2017-11-17T18:01:15.588Z,17.57
2017-11-17T18:03:43.064Z,15.87
2017-11-17T18:06:10.553Z,17.87
2017-11-17T18:08:38.080Z,18.90
2017-11-17T18:11:05.572Z,15.27
2017-11-17T18:13:33.098Z,18.53
2017-11-17T18:16:00.595Z,23.73
2017-11-17T18:18:28.850Z,21.43
2017-11-17T18:20:56.361Z,20.40
2017-11-17T18:23:24.611Z,17.70
2017-11-17T18:25:52.982Z,18.57
2017-11-17T18:28:20.516Z,13.77
2017-11-17T18:30:47.960Z,17.43
2017-11-17T18:33:15.506Z,15.47
2017-11-17T18:35:43.867Z,14.50
2017-11-17T18:38:12.172Z,17.67
2017-11-17T18:40:39.665Z,20.13
2017-11-17T18:43:07.268Z,14.83
2017-11-17T18:45:34.771Z,18.33
2017-11-17T18:48:02.258Z,16.93
2017-11-17T18:50:30.572Z,14.77
2017-11-17T18:53:01.773Z,14.27
2017-11-17T18:55:30.050Z,17.00
2017-11-17T18:57:58.330Z,18.00
2017-11-17T19:00:25.876Z,15.97
2017-11-17T19:02:53.382Z,17.20
2017-11-17T19:05:21.085Z,18.77
2017-11-17T19:07:49.404Z,17.30
2017-11-17T19:10:16.996Z,16.73
2017-11-17T19:12:44.530Z,14.80
2017-11-17T19:15:12.813Z,15.93
2017-11-17T19:17:40.310Z,16.97
2017-11-17T19:20:07.856Z,21.43
2017-11-17T19:22:35.364Z,16.03
2017-11-17T19:25:03.634Z,19.73
2017-11-17T19:27:31.895Z,17.25
2017-11-17T19:29:59.494Z,17.23
2017-11-17T19:32:27.000Z,14.53
2017-11-17T19:34:54.510Z,16.37
2017-11-17T19:37:22.789Z,12.97
2017-11-17T19:39:50.285Z,18.13
2017-11-17T19:42:17.790Z,14.70
2017-11-17T19:44:46.148Z,11.30
2017-11-17T19:47:13.659Z,15.93
2017-11-17T19:49:41.173Z,16.17
2017-11-17T19:52:09.434Z,16.03
2017-11-17T19:54:36.970Z,17.07
2017-11-17T19:57:04.471Z,14.97
2017-11-17T19:59:31.966Z,13.85
2017-11-17T20:01:59.474Z,14.67
2017-11-17T20:04:26.973Z,15.50
2017-11-17T20:06:54.525Z,15.47
2017-11-17T20:09:22.804Z,15.27
2017-11-17T20:11:50.354Z,21.67
2017-11-17T20:14:18.638Z,16.73
2017-11-17T20:16:46.133Z,21.00
2017-11-17T20:19:13.678Z,18.53
2017-11-17T20:21:41.167Z,17.37
2017-11-17T20:24:08.670Z,12.53
2017-11-17T20:26:36.159Z,15.13
2017-11-17T20:29:03.683Z,14.30
2017-11-17T20:31:31.229Z,14.77
2017-11-17T20:33:59.513Z,16.62
2017-11-17T20:36:27.809Z,14.55
2017-11-17T20:38:55.349Z,14.07
2017-11-17T20:41:23.617Z,19.55
2017-11-17T20:43:51.918Z,16.07
2017-11-17T20:46:20.202Z,15.50
2017-11-17T20:48:47.709Z,16.98
2017-11-17T20:51:15.195Z,17.83
2017-11-17T20:53:43.533Z,15.57
2017-11-17T20:56:11.025Z,16.27
2017-11-17T20:58:39.365Z,14.95
2017-11-17T21:01:06.884Z,13.80
2017-11-17T21:03:34.488Z,16.77
2017-11-17T21:06:02.000Z,15.85
2017-11-17T21:08:29.548Z,20.50
2017-11-17T21:10:57.809Z,14.13
2017-11-17T21:13:26.069Z,15.88
2017-11-17T21:15:53.625Z,14.85
2017-11-17T21:18:21.203Z,17.35
2017-11-17T21:20:49.496Z,12.95
2017-11-17T21:23:17.024Z,16.17
2017-11-17T21:25:44.577Z,13.27
2017-11-17T21:28:13.614Z,14.10
2017-11-17T21:30:41.092Z,15.55
2017-11-17T21:33:08.627Z,15.55
2017-11-17T21:35:36.134Z,14.30
2017-11-17T21:38:03.653Z,16.05
2017-11-17T21:40:31.159Z,15.60
2017-11-17T21:42:58.683Z,14.38
2017-11-17T21:45:26.208Z,21.10
2017-11-17T21:47:54.489Z,19.98
2017-11-17T21:50:22.924Z,17.55
2017-11-17T21:52:50.445Z,16.30
2017-11-17T21:55:17.941Z,16.40
2017-11-17T21:57:45.514Z,19.35
2017-11-17T22:00:13.017Z,24.17
2017-11-17T22:02:40.516Z,18.85
2017-11-17T22:05:08.226Z,16.55
2017-11-17T22:07:36.562Z,16.08
2017-11-17T22:10:04.095Z,14.25
2017-11-17T22:12:31.584Z,16.02
2017-11-17T22:14:59.217Z,17.30
2017-11-17T22:17:26.756Z,16.60
2017-11-17T22:19:54.251Z,16.60
2017-11-17T22:22:21.766Z,17.95
2017-11-17T22:24:49.268Z,19.45
2017-11-17T22:27:16.782Z,19.50
2017-11-17T22:29:44.304Z,19.20
2017-11-17T22:32:11.784Z,15.70
2017-11-17T22:34:40.065Z,18.15
2017-11-17T22:37:08.341Z,16.45
2017-11-17T22:39:36.595Z,19.35
2017-11-17T22:42:04.097Z,17.98
2017-11-17T22:44:31.636Z,18.58
2017-11-17T22:46:59.904Z,20.00
2017-11-17T22:49:28.160Z,19.65
2017-11-17T22:51:55.748Z,15.70
2017-11-17T22:54:23.243Z,14.60
2017-11-17T22:56:50.736Z,19.35
2017-11-17T22:59:18.322Z,17.55
2017-11-17T23:01:46.594Z,17.95
2017-11-17T23:04:14.129Z,16.60
2017-11-17T23:06:41.620Z,17.40
2017-11-17T23:09:09.905Z,18.87
2017-11-17T23:11:37.401Z,20.20
2017-11-17T23:14:04.919Z,18.83
2017-11-17T23:16:32.445Z,19.45
2017-11-17T23:19:00.054Z,18.85
2017-11-17T23:21:27.593Z,17.87
2017-11-17T23:23:55.150Z,21.27
2017-11-17T23:26:23.425Z,15.20
2017-11-17T23:28:50.976Z,20.02
2017-11-17T23:31:18.506Z,18.50
2017-11-17T23:33:46.108Z,19.23
2017-11-17T23:36:13.677Z,18.20
2017-11-17T23:38:41.165Z,17.08
2017-11-17T23:41:08.704Z,17.15
2017-11-17T23:43:36.190Z,19.62
2017-11-17T23:46:03.736Z,18.87
2017-11-17T23:48:31.252Z,20.20
2017-11-17T23:50:59.501Z,21.30
2017-11-17T23:53:27.118Z,21.75
2017-11-17T23:55:54.616Z,20.35
2017-11-17T23:58:22.135Z,24.17
